Página principal
METAR-TAF:

METAR-TAF

Aeroportos :

Tenerife Sul, Espanha

Aeroporto de Tenerife Sul

latitude: 28-03N, longitude: 016-34W, altura: 64 m

Observação actual do tempo

O boletim foi feito há 32 minutos, às 23:30 UTC
Vento 13 kt de es-nordeste
Temperatura 18°C
Humidade 68%
Pressão 1018 hPa
Visibilidade 10 km ou mais
Poucas nuvensa uma altura de 4000 ft

METAR: GCTS 152330Z 06013KT 9999 FEW040 18/12 Q1018 NOSIG

Hora: 00:02 (00:02 UTC)

Previsão

O boletim foi feito há 4 horas e 2 minutos, às 20:00 UTC
Previsão válida de 15 às 21 UTC a 16 às 21 UTC
Vento 20 kt de es-nordeste
Visibilidade 10 km ou mais
Nuvens dispersasa uma altura de 4000 ft
Probabilidade 40% :
Temporariamente
de 16 às 03 UTC a 16 às 10 UTC
Vento 10 kt de es-nordeste
Probabilidade 30% :
Temporariamente
de 16 às 12 UTC a 16 às 21 UTC
Vento 22 kt de este com rajadas de 34 kt

TAF: GCTS 152000Z 1521/1621 07020KT 9999 SCT040 TX24/1614Z TN17/1606Z PROB40 TEMPO 1603/1610 06010KT PROB30 TEMPO 1612/1621 08022G34KT

Observações e previsões do tempo de mais de 4000 aeroportos (mensagens METAR e TAF).

As estações disponíveis são os pontos amarelos e vermelhos sobre o mapa.

Mova o rato sobre o mapa para ver o nome da estação.

Depois clique no ponto para visualizar as observações e previsões meteorológicas.

Para alterar o mapa : clique nos botões verdes com uma cruz preta para aumentar o zoom; no botão verde com uma pitada de zoom; ou nas setas verdes para mapas adjacentes.


METAR-TAF: